Latest Weather Observations for Lameroo AWS

IDS60801

Issued at 6:31 pm CST Saturday 29 August 2015 (issued every 30 minutes, with the page automatically refreshed every 10 minutes)

About weather observations | Map of weather stations | Latest weather observations for SA | Other Formats
Station Details ID: 025562 Name: AUSTIN PLAINS Lat: -35.38 Lon: 140.54 Height: 110.08 m
Data from the previous 72 hours. | See also: Recent months at Lameroo AWS
Date/Time
CST
Temp
°C
App
Temp
°C
Dew
Point
Rel
Hum
%
Delta-T
°C
Wind Press
QNH
hPa
Press
MSL
hPa
Rain
since 9 am
mm
Dir
 
Spd
km/h
Gust
km/h
Spd
kts
Gust
kts
29/06:30pm 7.8 3.0 -2.5 48 3.8 S 13 15 7 8 1026.9 1027.0 0.2
29/06:00pm 8.3 3.6 -1.5 50 3.7 SSE 13 15 7 8 1026.6 1026.7 0.2
29/05:30pm 9.8 5.6 -1.0 47 4.2 SSE 11 15 6 8 1026.4 1026.5 0.2
29/05:00pm 12.0 7.7 -1.9 38 5.5 S 11 17 6 9 1026.2 1026.3 0.2
29/04:30pm 13.1 8.4 -1.6 36 5.9 SSE 13 17 7 9 1026.2 1026.3 0.2
29/04:00pm 13.6 9.6 -1.9 34 6.2 S 9 17 5 9 1026.1 1026.2 0.2
29/03:30pm 13.9 10.4 -1.7 34 6.3 S 7 13 4 7 1026.2 1026.3 0.2
29/03:00pm 13.8 10.4 -2.2 33 6.4 SE 6 13 3 7 1026.3 1026.4 0.2
29/02:30pm 13.8 10.3 -1.0 36 6.0 ESE 7 15 4 8 1026.5 1026.6 0.2
29/02:00pm 13.3 10.4 -1.4 36 6.0 ESE 4 9 2 5 1026.7 1026.8 0.2
29/01:30pm 13.2 9.7 -1.2 37 5.8 SSE 7 13 4 7 1026.9 1027.0 0.2
29/01:00pm 13.1 9.3 -0.9 38 5.7 ESE 9 17 5 9 1027.4 1027.5 0.0
29/12:30pm 12.9 9.3 0.3 42 5.2 SSE 9 17 5 9 1027.8 1027.9 0.0
29/12:00pm 12.3 9.1 -0.2 42 5.1 ESE 6 11 3 6 1028.2 1028.4 0.0
29/11:30am 11.4 7.7 0.2 46 4.6 E 9 15 5 8 1028.6 1028.8 0.0
29/11:00am 11.6 7.2 0.4 46 4.6 E 13 20 7 11 1028.9 1029.1 0.0
29/10:30am 11.5 6.6 1.7 51 4.1 ESE 17 22 9 12 1029.1 1029.3 0.0
29/10:00am 10.2 5.3 1.8 56 3.5 E 17 24 9 13 1029.2 1029.4 0.0
29/09:30am 8.4 2.9 1.8 63 2.7 E 20 26 11 14 1029.3 1029.5 0.0
29/09:00am 7.8 2.2 1.4 64 2.6 E 20 28 11 15 1029.3 1029.5 0.0
29/08:30am 7.1 2.8 3.0 75 1.7 ESE 15 19 8 10 1029.1 1029.3 0.0
29/08:00am 6.4 1.7 3.4 81 1.3 ESE 17 22 9 12 1029.0 1029.2 0.0
29/07:30am 5.9 1.8 4.1 88 0.8 E 15 20 8 11 1028.6 1028.8 0.0
29/07:00am 6.5 3.6 6.5 100 0.0 SE 11 17 6 9 1028.0 1028.2 0.0
29/06:30am 6.6 4.1 6.6 100 0.0 ESE 9 11 5 6 1027.7 1027.8 0.0
29/06:00am 6.7 4.8 6.7 100 0.0 SE 6 7 3 4 1027.5 1027.6 0.0
29/05:30am 6.6 4.5 6.6 100 0.0 SE 7 11 4 6 1027.3 1027.4 0.0
29/05:00am 5.7 - - - - SE 11 13 6 7 1027.2 1027.3 0.0
29/04:30am 6.0 - - - - SSE 7 9 4 5 1027.0 1027.1 0.0
29/04:00am 5.5 - - - - S 11 17 6 9 1026.9 1027.0 0.0
29/03:30am 4.7 1.8 4.7 100 0.0 S 9 13 5 7 1026.8 1026.9 0.0
29/03:00am 4.6 - - - - S 9 11 5 6 1027.0 1027.1 0.0
29/02:30am 4.6 - - - - S 11 11 6 6 1027.2 1027.3 0.0
29/02:00am 4.5 1.2 4.5 100 0.0 S 11 13 6 7 1027.3 1027.4 0.0
29/01:30am 4.4 0.7 4.4 100 0.0 S 13 13 7 7 1027.6 1027.7 0.0
29/01:00am 4.9 1.3 4.9 100 0.0 S 13 15 7 8 1027.6 1027.7 0.0
29/12:30am 5.5 1.3 5.5 100 0.0 S 17 17 9 9 1027.5 1027.6 0.0
29/12:00am 4.7 - - - - SSW 15 15 8 8 1027.4 1027.5 0.0
 
Date/Time
CST
Temp
°C
App
Temp
°C
Dew
Point
Rel
Hum
%
Delta-T
°C
Wind Press
QNH
hPa
Press
MSL
hPa
Rain
since 9 am
mm
Dir
 
Spd
km/h
Gust
km/h
Spd
kts
Gust
kts
28/11:30pm 3.5 -0.4 3.5 100 0.0 SSW 13 13 7 7 1027.5 1027.6 0.0
28/11:00pm 3.8 -0.4 3.8 100 0.0 SSW 15 15 8 8 1027.6 1027.7 0.0
28/10:30pm 4.2 0.5 4.2 100 0.0 SSW 13 13 7 7 1027.7 1027.8 0.0
28/10:00pm 4.4 0.5 3.2 92 0.5 SSW 13 13 7 7 1027.8 1027.9 0.0
28/09:30pm 4.7 1.1 3.0 89 0.7 SSW 11 13 6 7 1027.8 1027.9 0.0
28/09:00pm 5.0 1.0 2.7 85 0.9 SSW 13 15 7 8 1027.9 1028.1 0.0
28/08:30pm 6.0 1.6 2.5 78 1.4 SSW 15 17 8 9 1027.7 1027.8 0.0
28/08:00pm 6.5 2.9 2.8 77 1.5 SSW 11 13 6 7 1027.4 1027.5 0.0
28/07:30pm 8.9 6.4 3.5 69 2.3 S 6 6 3 3 1027.2 1027.3 0.0
28/07:00pm 8.8 5.7 3.8 71 2.2 SSW 9 11 5 6 1027.2 1027.3 0.0
28/06:30pm 9.2 6.2 4.2 71 2.2 S 9 11 5 6 1027.0 1027.1 0.0
28/06:00pm 9.5 6.8 3.9 68 2.4 SSE 7 9 4 5 1026.8 1026.9 0.0
28/05:30pm 10.1 7.0 3.8 65 2.8 SSE 9 11 5 6 1026.6 1026.7 0.0
28/05:00pm 11.7 7.4 3.2 56 3.8 S 15 20 8 11 1026.5 1026.6 0.0
28/04:30pm 12.2 7.8 2.6 52 4.2 SSE 15 22 8 12 1026.3 1026.4 0.0
28/04:00pm 13.2 8.4 2.4 48 4.8 SSW 17 22 9 12 1026.3 1026.4 0.0
28/03:30pm 12.7 8.8 3.4 53 4.1 SSE 13 20 7 11 1026.4 1026.5 0.0
28/03:00pm 12.7 8.0 3.4 53 4.1 SSE 17 24 9 13 1026.6 1026.7 0.0
28/02:30pm 12.7 8.0 3.4 53 4.1 S 17 22 9 12 1026.8 1026.9 0.0
28/02:00pm 13.1 8.9 4.0 54 4.1 S 15 22 8 12 1026.9 1027.0 0.0
28/01:30pm 13.2 8.6 3.6 52 4.3 S 17 24 9 13 1027.0 1027.1 0.0
28/01:00pm 12.5 8.0 4.2 57 3.8 S 17 24 9 13 1027.4 1027.5 0.0
28/12:30pm 12.7 8.6 4.2 56 3.8 SSW 15 22 8 12 1027.8 1027.9 0.0
28/12:00pm 12.6 7.6 4.8 59 3.6 S 20 30 11 16 1028.2 1028.4 0.0
28/11:30am 12.7 9.0 4.4 57 3.8 SSW 13 20 7 11 1028.7 1028.9 0.0
28/11:00am 13.0 8.9 6.1 63 3.3 SSE 17 20 9 11 1028.9 1029.1 0.0
28/10:30am 11.8 7.4 6.5 70 2.5 SSE 19 24 10 13 1029.2 1029.4 0.0
28/10:00am 9.9 6.0 7.0 82 1.4 SSE 17 26 9 14 1029.3 1029.5 0.0
28/09:30am 8.9 5.4 7.2 89 0.8 SSE 15 20 8 11 1029.5 1029.7 0.0
28/09:00am 8.6 5.1 8.6 100 0.0 SSE 17 26 9 14 1029.3 1029.5 0.8
28/08:30am 7.6 4.2 7.6 100 0.0 SSE 15 19 8 10 1029.0 1029.2 0.8
28/08:00am 6.3 2.2 6.3 100 0.0 SSE 17 24 9 13 1028.8 1029.0 0.8
28/07:30am 5.4 - - - - SSE 15 19 8 10 1028.6 1028.8 0.8
28/07:00am 4.4 - - - - S 15 15 8 8 1028.4 1028.6 0.8
28/06:30am 4.1 - - - - S 15 17 8 9 1028.1 1028.3 0.8
28/06:00am 3.7 -0.1 3.7 100 0.0 SSW 13 15 7 8 1027.6 1027.7 0.8
28/05:30am 4.4 0.3 4.4 100 0.0 S 15 15 8 8 1027.5 1027.6 0.8
28/05:00am 4.8 0.8 4.8 100 0.0 S 15 17 8 9 1027.3 1027.4 0.8
28/04:30am 5.5 1.6 5.5 100 0.0 S 15 19 8 10 1027.0 1027.1 0.8
28/04:00am 5.8 2.0 5.8 100 0.0 S 15 19 8 10 1026.7 1026.8 0.8
28/03:30am 6.2 2.1 6.2 100 0.0 S 17 20 9 11 1026.4 1026.5 0.6
28/03:00am 6.0 1.9 6.0 100 0.0 S 17 20 9 11 1026.4 1026.5 0.6
28/02:30am 6.2 2.1 6.2 100 0.0 S 17 20 9 11 1026.6 1026.7 0.6
28/02:00am 6.3 2.2 6.3 100 0.0 S 17 20 9 11 1026.7 1026.8 0.6
28/01:30am 6.3 2.2 6.3 100 0.0 S 17 19 9 10 1026.9 1027.0 0.6
28/01:00am 6.5 2.5 6.5 100 0.0 S 17 20 9 11 1026.8 1026.9 0.6
28/12:30am 6.9 2.6 6.9 100 0.0 SSW 19 20 10 11 1026.6 1026.7 0.6
28/12:00am 7.0 2.7 7.0 100 0.0 S 19 22 10 12 1026.5 1026.6 0.6
 
Date/Time
CST
Temp
°C
App
Temp
°C
Dew
Point
Rel
Hum
%
Delta-T
°C
Wind Press
QNH
hPa
Press
MSL
hPa
Rain
since 9 am
mm
Dir
 
Spd
km/h
Gust
km/h
Spd
kts
Gust
kts
27/11:30pm 7.3 3.4 7.3 100 0.0 SSW 17 22 9 12 1026.5 1026.6 0.4
27/11:00pm 7.6 3.8 7.6 100 0.0 SSW 17 22 9 12 1026.6 1026.7 0.4
27/10:30pm 8.0 4.3 8.0 100 0.0 SSW 17 20 9 11 1026.5 1026.6 0.4
27/10:00pm 8.3 4.7 8.3 100 0.0 SSW 17 20 9 11 1026.5 1026.6 0.4
27/09:30pm 9.2 4.7 8.6 96 0.3 SSW 22 30 12 16 1026.2 1026.3 0.4
27/09:00pm 9.2 5.2 9.2 100 0.0 SW 20 28 11 15 1026.2 1026.3 0.4
27/08:30pm 9.3 5.3 9.2 99 0.0 SW 20 28 11 15 1026.0 1026.1 0.4
27/08:00pm 9.2 6.2 9.2 100 0.0 SW 15 20 8 11 1025.8 1025.9 0.4
27/07:30pm 9.6 6.0 8.4 92 0.6 WSW 17 24 9 13 1025.6 1025.7 0.4
27/07:00pm 9.5 5.5 8.3 92 0.6 WSW 19 22 10 12 1025.3 1025.4 0.4
27/06:30pm 9.0 5.8 8.6 97 0.2 WSW 15 19 8 10 1025.2 1025.3 0.4
27/06:00pm 9.5 5.8 8.1 91 0.7 WSW 17 20 9 11 1024.8 1024.9 0.4
27/05:30pm 10.2 6.1 8.6 90 0.8 WSW 20 26 11 14 1024.4 1024.5 0.4
27/05:00pm 10.5 6.4 8.8 89 0.8 WSW 20 26 11 14 1024.2 1024.3 0.4
27/04:30pm 10.3 5.4 8.4 88 0.9 SW 24 33 13 18 1024.0 1024.1 0.4
27/04:00pm 13.4 6.9 6.3 62 3.4 SW 30 37 16 20 1023.7 1023.8 0.0
27/03:30pm 13.3 7.1 7.7 69 2.8 SW 30 37 16 20 1023.4 1023.5 0.0
27/03:00pm 12.6 6.5 6.6 67 2.9 SW 28 37 15 20 1023.4 1023.5 0.0
27/02:30pm 14.8 8.3 4.8 51 4.7 WSW 28 35 15 19 1023.0 1023.2 0.0
27/02:00pm 14.8 8.9 3.9 48 5.0 WSW 24 33 13 18 1023.0 1023.2 0.0
27/01:30pm 15.7 9.3 3.2 43 5.7 SW 26 33 14 18 1023.1 1023.3 0.0
27/01:00pm 14.6 9.1 4.0 49 4.9 WSW 22 28 12 15 1023.6 1023.7 0.0
27/12:30pm 15.1 9.9 2.6 43 5.6 WSW 19 24 10 13 1023.8 1023.9 0.0
27/12:00pm 14.4 9.5 5.0 53 4.4 SW 20 28 11 15 1024.0 1024.1 0.0
27/11:30am 14.4 9.7 5.2 54 4.3 SW 19 26 10 14 1024.1 1024.2 0.0
27/11:00am 13.3 8.8 6.2 62 3.4 SW 19 26 10 14 1024.4 1024.5 0.0
27/10:30am 13.1 8.7 7.5 69 2.7 SSW 20 28 11 15 1024.6 1024.7 0.0
27/10:00am 12.1 8.6 8.6 79 1.7 SSW 17 22 9 12 1024.7 1024.8 0.0
27/09:30am 10.4 7.3 8.7 89 0.8 SW 15 20 8 11 1024.8 1024.9 0.0
27/09:00am 8.3 5.8 8.3 100 0.0 SW 11 13 6 7 1024.7 1024.8 0.6
27/08:30am 7.3 3.8 7.3 100 0.0 SW 15 17 8 9 1024.6 1024.7 0.6
27/08:00am 5.8 2.4 5.8 100 0.0 SW 13 15 7 8 1024.5 1024.6 0.6
27/07:30am 4.9 - - - - SW 11 15 6 8 1024.2 1024.3 0.6
27/07:00am 3.9 0.5 3.9 100 0.0 SW 11 13 6 7 1023.7 1023.8 0.6
27/06:30am 4.4 0.3 4.4 100 0.0 SW 15 17 8 9 1023.1 1023.3 0.6
27/06:00am 5.5 1.6 5.5 100 0.0 WSW 15 17 8 9 1022.9 1023.1 0.6
27/05:30am 5.6 2.5 5.6 100 0.0 WSW 11 13 6 7 1022.5 1022.7 0.6
27/05:00am 6.8 4.0 6.8 100 0.0 SW 11 13 6 7 1022.4 1022.6 0.6
27/04:30am 7.6 4.6 7.6 100 0.0 SW 13 15 7 8 1022.2 1022.4 0.6
27/04:00am 8.1 5.6 8.1 100 0.0 SW 11 13 6 7 1022.2 1022.4 0.6
27/03:30am 8.4 5.6 8.4 100 0.0 SW 13 15 7 8 1022.2 1022.4 0.6
27/03:00am 8.4 5.6 8.4 100 0.0 SW 13 15 7 8 1022.2 1022.4 0.6
27/02:30am 8.4 5.6 8.4 100 0.0 SW 13 15 7 8 1022.4 1022.6 0.6
27/02:00am 8.3 5.2 7.2 93 0.5 SW 13 15 7 8 1022.6 1022.8 0.6
27/01:30am 8.7 6.0 7.5 92 0.6 SW 11 15 6 8 1022.7 1022.9 0.6
27/01:00am 8.8 6.1 7.4 91 0.7 SW 11 15 6 8 1022.8 1023.0 0.6
27/12:30am 8.8 6.1 7.4 91 0.7 SW 11 13 6 7 1022.9 1023.1 0.6
27/12:00am 8.9 6.6 7.5 91 0.7 SW 9 13 5 7 1023.0 1023.2 0.6
 
Date/Time
CST
Temp
°C
App
Temp
°C
Dew
Point
Rel
Hum
%
Delta-T
°C
Wind Press
QNH
hPa
Press
MSL
hPa
Rain
since 9 am
mm
Dir
 
Spd
km/h
Gust
km/h
Spd
kts
Gust
kts
26/11:30pm 9.0 6.3 7.5 90 0.7 SW 11 13 6 7 1023.4 1023.5 0.6
26/11:00pm 9.1 6.1 7.5 90 0.8 SSW 13 13 7 7 1023.4 1023.5 0.6
26/10:30pm 9.3 6.3 7.6 89 0.8 SW 13 17 7 9 1023.7 1023.8 0.6
26/10:00pm 9.4 5.2 7.5 88 0.9 WSW 19 22 10 12 1023.9 1024.0 0.6
26/09:30pm 9.4 5.7 7.8 90 0.8 WSW 17 20 9 11 1024.0 1024.1 0.6
26/09:00pm 9.4 5.6 7.5 88 0.9 W 17 20 9 11 1023.9 1024.0 0.6
26/08:30pm 9.8 7.2 7.6 86 1.1 SW 11 13 6 7 1023.7 1023.8 0.6
26/08:00pm 9.5 7.1 7.1 85 1.1 SW 9 11 5 6 1023.5 1023.6 0.6
26/07:30pm 9.8 7.1 7.2 84 1.2 SSW 11 13 6 7 1023.1 1023.3 0.6
26/07:00pm 9.8 7.5 7.6 86 1.1 SSW 9 11 5 6 1022.8 1023.0 0.6

Other Formats:

Comma delimited format used in spreadsheet applications
http://www.bom.gov.au/fwo/IDS60801/IDS60801.94690.axf

JavaScript Object Notation format (JSON) in row-major order
http://www.bom.gov.au/fwo/IDS60801/IDS60801.94690.json